Terminal Aerodrome Forecast
Issued by NWS St Louis, MO

Home | Current Version | Previous Version | Text Only | Print | Product List | Glossary On
Versions: 1 2 3 4 5 6 7 8 9 10 11 12 13 14 15 16 17 18 19 20 21 22
000
FTUS43 KLSX 030900 AAA
TAFSTL
TAF AMD
KSTL 030900Z 0309/0412 VRB04KT P6SM SCT009 BKN060
     FM031400 31007KT P6SM BKN035
     FM040100 25006KT P6SM SCT050
     FM040900 25011KT P6SM BKN120=

USA.gov is the U.S. government's official web portal to all federal, state and local government web resources and services.